createdAt,value
2023-06-22T00:00:23.213Z,61.48
2023-06-22T00:05:47.982Z,64.49
2023-06-22T00:10:50.762Z,61.78
2023-06-22T00:15:55.672Z,59.16
2023-06-22T00:20:59.564Z,63.73
2023-06-22T00:26:04.022Z,64.40
2023-06-22T00:31:06.971Z,63.88
2023-06-22T00:36:09.773Z,62.57
2023-06-22T00:41:15.194Z,58.83
2023-06-22T00:46:20.795Z,60.83
2023-06-22T00:51:25.532Z,69.94
2023-06-22T00:56:33.907Z,65.90
2023-06-22T01:01:44.135Z,63.35
2023-06-22T01:07:24.185Z,61.62
2023-06-22T01:12:35.973Z,60.77
2023-06-22T01:17:44.061Z,59.44
2023-06-22T01:23:36.305Z,57.63
2023-06-22T01:28:51.180Z,61.11
2023-06-22T01:33:59.260Z,69.05
2023-06-22T01:39:06.424Z,63.24
2023-06-22T01:44:12.555Z,61.63
2023-06-22T01:49:16.336Z,60.55
2023-06-22T01:54:21.402Z,57.39
2023-06-22T01:59:42.646Z,58.99
2023-06-22T02:05:11.647Z,67.59
2023-06-22T02:10:21.005Z,62.91
2023-06-22T02:15:26.785Z,61.36
2023-06-22T02:20:30.220Z,59.90
2023-06-22T02:25:34.196Z,57.56
2023-06-22T02:30:36.984Z,59.66
2023-06-22T02:35:40.879Z,66.82
2023-06-22T02:40:47.910Z,63.02
2023-06-22T02:45:51.781Z,61.02
2023-06-22T02:50:54.530Z,59.96
2023-06-22T02:55:57.431Z,57.30
2023-06-22T03:01:05.907Z,59.72
2023-06-22T03:06:15.359Z,67.29
2023-06-22T03:11:18.320Z,62.10
2023-06-22T03:16:22.640Z,56.12
2023-06-22T03:21:30.109Z,57.33
2023-06-22T03:26:33.217Z,58.03
2023-06-22T03:31:37.199Z,60.02
2023-06-22T03:36:46.606Z,60.20
2023-06-22T03:41:52.720Z,60.13
2023-06-22T03:46:55.356Z,59.81
2023-06-22T03:52:00.608Z,58.87
2023-06-22T03:57:08.347Z,57.55
2023-06-22T04:02:11.100Z,56.45
2023-06-22T04:07:14.121Z,55.17
2023-06-22T04:12:19.023Z,54.17
2023-06-22T04:17:21.985Z,52.88
2023-06-22T04:22:24.639Z,52.15
2023-06-22T04:27:27.893Z,52.18
2023-06-22T04:32:30.637Z,51.88
2023-06-22T04:37:34.920Z,52.19
2023-06-22T04:42:40.728Z,53.11
2023-06-22T04:47:44.036Z,52.79
2023-06-22T04:52:51.612Z,52.27
2023-06-22T04:57:56.722Z,53.22
2023-06-22T05:03:14.889Z,52.34
2023-06-22T05:08:29.948Z,50.88
2023-06-22T05:13:33.239Z,51.71
2023-06-22T05:18:40.467Z,53.15
2023-06-22T05:24:09.295Z,53.90
2023-06-22T05:29:11.991Z,54.75
2023-06-22T05:34:20.590Z,55.61
2023-06-22T05:39:24.688Z,56.89
2023-06-22T05:44:27.382Z,58.32
2023-06-22T05:49:33.736Z,59.55
2023-06-22T05:54:39.614Z,60.37
2023-06-22T05:59:42.379Z,60.82
2023-06-22T06:04:47.092Z,61.47
2023-06-22T06:09:51.064Z,62.04
2023-06-22T06:14:57.698Z,63.31
2023-06-22T06:20:03.601Z,56.64
2023-06-22T06:25:08.350Z,58.35
2023-06-22T06:30:15.997Z,60.56
2023-06-22T06:35:25.318Z,62.30
2023-06-22T06:40:31.087Z,59.36
2023-06-22T06:45:35.921Z,60.20
2023-06-22T06:50:41.808Z,63.12
2023-06-22T06:55:49.287Z,59.54
2023-06-22T07:00:52.174Z,57.36
2023-06-22T07:05:57.616Z,56.44
2023-06-22T07:11:02.134Z,56.82
2023-06-22T07:16:06.753Z,56.94
2023-06-22T07:21:09.537Z,58.45
2023-06-22T07:26:13.824Z,59.76
2023-06-22T07:31:18.960Z,60.86
2023-06-22T07:36:24.249Z,62.04
2023-06-22T07:41:27.146Z,63.33
2023-06-22T07:46:33.111Z,56.82
2023-06-22T07:51:36.223Z,58.77
2023-06-22T07:56:44.629Z,60.90
2023-06-22T08:01:50.493Z,62.07
2023-06-22T08:06:53.409Z,58.81
2023-06-22T08:11:57.770Z,59.26
2023-06-22T08:17:00.532Z,61.09
2023-06-22T08:22:03.480Z,62.38
2023-06-22T08:27:15.813Z,58.95
2023-06-22T08:32:18.926Z,57.66
2023-06-22T08:37:24.839Z,59.90
2023-06-22T08:42:28.396Z,61.47
2023-06-22T08:47:31.586Z,61.89
2023-06-22T08:52:35.864Z,63.33
2023-06-22T08:57:40.471Z,57.11
2023-06-22T09:02:50.238Z,57.39
2023-06-22T09:08:01.191Z,57.19
2023-06-22T09:13:06.750Z,53.29
2023-06-22T09:18:12.849Z,49.78
2023-06-22T09:23:15.938Z,48.02
2023-06-22T09:28:22.954Z,45.32
2023-06-22T09:33:27.746Z,44.38
2023-06-22T09:38:30.548Z,43.08
2023-06-22T09:43:37.269Z,41.31
2023-06-22T09:48:43.242Z,40.73
2023-06-22T09:53:46.118Z,39.26
2023-06-22T09:58:52.089Z,39.14
2023-06-22T10:04:03.930Z,38.52
2023-06-22T10:09:07.715Z,37.74
2023-06-22T10:14:11.682Z,37.25
2023-06-22T10:19:14.588Z,37.13
2023-06-22T10:24:17.463Z,36.79
2023-06-22T10:29:22.115Z,36.05
2023-06-22T10:34:24.799Z,36.27
2023-06-22T10:39:27.521Z,37.34
2023-06-22T10:44:30.227Z,38.90
2023-06-22T10:49:35.409Z,40.82
2023-06-22T10:54:39.895Z,40.77
2023-06-22T10:59:45.365Z,40.07
2023-06-22T11:04:51.171Z,40.41
2023-06-22T11:09:54.140Z,41.66
2023-06-22T11:23:15.387Z,41.54
2023-06-22T11:28:33.075Z,41.30
2023-06-22T11:34:14.929Z,40.88
2023-06-22T11:40:06.283Z,40.30
2023-06-22T11:45:42.654Z,37.83
2023-06-22T12:08:10.166Z,35.30
2023-06-22T12:13:41.340Z,36.03
2023-06-22T12:18:44.045Z,36.28
2023-06-22T12:25:15.496Z,36.79
2023-06-22T12:30:52.434Z,36.60
2023-06-22T12:35:57.271Z,37.02
2023-06-22T12:43:53.134Z,36.66
2023-06-22T12:46:38.780Z,36.81
2023-06-22T12:51:43.719Z,36.78
2023-06-22T12:56:46.730Z,37.71
2023-06-22T13:01:52.406Z,38.08
2023-06-22T13:06:55.311Z,37.71
2023-06-22T13:12:00.987Z,37.89
2023-06-22T13:17:03.939Z,38.35
2023-06-22T13:22:31.723Z,38.76
2023-06-22T13:27:34.506Z,38.08
2023-06-22T13:32:37.538Z,38.87
2023-06-22T13:37:42.447Z,38.93
2023-06-22T13:42:46.422Z,38.45
2023-06-22T13:47:49.167Z,36.71
2023-06-22T13:52:54.186Z,37.16
2023-06-22T13:57:56.876Z,37.56
2023-06-22T14:02:59.593Z,38.24
2023-06-22T14:08:03.951Z,38.83
2023-06-22T14:13:08.154Z,39.29
2023-06-22T14:18:16.206Z,38.91
2023-06-22T14:23:19.020Z,39.01
2023-06-22T14:28:22.161Z,39.03
2023-06-22T14:33:24.864Z,39.46
2023-06-22T14:38:28.683Z,39.52
2023-06-22T14:43:32.752Z,39.03
2023-06-22T14:48:35.572Z,38.49
2023-06-22T14:53:39.602Z,38.20
2023-06-22T14:58:48.293Z,38.37
2023-06-22T15:03:52.197Z,38.44
2023-06-22T15:08:55.185Z,38.45
2023-06-22T15:14:00.057Z,38.03
2023-06-22T15:19:03.147Z,37.89
2023-06-22T15:24:06.078Z,38.24
2023-06-22T15:29:14.970Z,38.79
2023-06-22T15:34:22.404Z,38.96
2023-06-22T15:39:35.006Z,39.10
2023-06-22T15:44:37.869Z,39.38
2023-06-22T15:49:40.575Z,39.04
2023-06-22T15:54:47.113Z,38.81
2023-06-22T15:59:51.596Z,39.19
2023-06-22T16:04:59.864Z,39.67
2023-06-22T16:10:05.443Z,39.91
2023-06-22T16:15:09.064Z,39.98
2023-06-22T16:20:27.205Z,40.04
2023-06-22T16:25:32.462Z,40.23
2023-06-22T16:30:35.423Z,40.51
2023-06-22T16:35:40.138Z,40.54
2023-06-22T16:40:42.920Z,40.86
2023-06-22T16:45:45.629Z,40.85
2023-06-22T16:50:48.320Z,40.88
2023-06-22T16:55:56.039Z,41.15
2023-06-22T17:01:00.492Z,41.44
2023-06-22T17:06:04.449Z,41.32
2023-06-22T17:11:09.645Z,41.50
2023-06-22T17:16:13.271Z,41.94
2023-06-22T17:21:23.901Z,41.94
2023-06-22T17:26:29.064Z,42.07
2023-06-22T17:31:44.547Z,42.34
2023-06-22T17:36:52.970Z,42.32
2023-06-22T17:41:55.927Z,42.49
2023-06-22T17:47:00.049Z,42.64
2023-06-22T17:52:02.938Z,42.92
2023-06-22T17:57:17.324Z,43.16
2023-06-22T18:02:26.687Z,43.32
2023-06-22T18:07:33.401Z,43.54
2023-06-22T18:12:44.700Z,44.22
2023-06-22T18:17:52.068Z,44.47
2023-06-22T18:23:01.598Z,49.92
2023-06-22T18:28:10.691Z,52.61
2023-06-22T18:33:13.773Z,54.21
2023-06-22T18:38:17.173Z,55.31
2023-06-22T18:43:27.039Z,55.91
2023-06-22T18:48:29.667Z,57.13
2023-06-22T18:53:32.478Z,57.75
2023-06-22T18:58:35.283Z,58.78
2023-06-22T19:03:43.217Z,59.68
2023-06-22T19:09:15.598Z,60.49
2023-06-22T19:14:22.856Z,60.95
2023-06-22T19:19:25.631Z,61.68
2023-06-22T19:24:47.989Z,61.91
2023-06-22T19:29:55.317Z,53.84
2023-06-22T19:35:00.339Z,55.60
2023-06-22T19:40:07.192Z,57.65
2023-06-22T19:45:16.466Z,59.08
2023-06-22T19:50:19.315Z,59.97
2023-06-22T19:55:23.641Z,61.36
2023-06-22T20:00:26.759Z,61.60
2023-06-22T20:05:29.909Z,63.60
2023-06-22T20:10:39.477Z,60.30
2023-06-22T20:15:48.091Z,54.57
2023-06-22T20:20:53.420Z,57.82
2023-06-22T20:25:59.026Z,60.33
2023-06-22T20:31:12.684Z,62.39
2023-06-22T20:36:17.786Z,58.18
2023-06-22T20:41:20.727Z,56.97
2023-06-22T20:46:25.951Z,59.90
2023-06-22T20:51:28.856Z,61.49
2023-06-22T20:56:34.098Z,60.37
2023-06-22T21:01:37.110Z,55.82
2023-06-22T21:06:40.129Z,59.48
2023-06-22T21:11:42.884Z,63.51
2023-06-22T21:16:48.938Z,55.88
2023-06-22T21:21:52.131Z,57.66
2023-06-22T21:26:55.080Z,59.87
2023-06-22T21:31:58.045Z,62.77
2023-06-22T21:37:01.164Z,59.41
2023-06-22T21:42:07.124Z,55.88
2023-06-22T21:47:10.563Z,59.52
2023-06-22T21:52:15.748Z,61.78
2023-06-22T21:57:23.095Z,63.66
2023-06-22T22:02:26.978Z,56.43
2023-06-22T22:07:31.478Z,58.69
2023-06-22T22:12:35.706Z,61.08
2023-06-22T22:17:38.611Z,64.56
2023-06-22T22:22:41.744Z,60.41
2023-06-22T22:27:46.837Z,54.08
2023-06-22T22:32:50.028Z,56.07
2023-06-22T22:37:55.372Z,60.14
2023-06-22T22:43:00.333Z,63.66
2023-06-22T22:48:05.911Z,58.68
2023-06-22T22:53:11.450Z,57.16
2023-06-22T22:58:16.998Z,59.29
2023-06-22T23:03:19.897Z,59.56
2023-06-22T23:08:24.495Z,61.15
2023-06-22T23:13:28.488Z,69.64
2023-06-22T23:18:32.788Z,62.78
2023-06-22T23:23:37.536Z,55.61
2023-06-22T23:28:46.022Z,57.68
2023-06-22T23:33:49.307Z,60.39
2023-06-22T23:38:54.579Z,66.64
2023-06-22T23:43:57.768Z,58.50
2023-06-22T23:49:03.365Z,55.45
2023-06-22T23:54:06.250Z,59.50
2023-06-22T23:59:09.654Z,65.01
